Time;durP1;ratioP1;P1;durP2;ratioP2;P2;SDS_P1;SDS_P2;PMS_P1;PMS_P2;Temp;Humidity;BMP_temperature;BMP_pressure;BME280_temperature;BME280_humidity;BME280_pressure;Samples;Min_cycle;Max_cycle;Signal;HPM_P1;HPM_P2
2022/03/07 00:01:27;;;;;;;10.75;4.40;;;0.50;69.90;;;;;;4969609;28;20508;-72
2022/03/07 00:03:54;;;;;;;7.75;4.90;;;;;;;;;;4950568;28;20030;-71
2022/03/07 00:06:20;;;;;;;6.40;4.13;;;;;;;;;;4968064;28;20085;-72
2022/03/07 00:08:46;;;;;;;15.98;5.60;;;;;;;;;;4966513;28;20050;-72
2022/03/07 00:11:12;;;;;;;6.90;3.92;;;;;;;;;;4968928;28;20519;-71
2022/03/07 00:13:38;;;;;;;9.00;4.18;;;;;;;;;;4970929;28;20046;-72
2022/03/07 00:16:04;;;;;;;11.50;6.38;;;;;;;;;;4965835;28;20031;-73
2022/03/07 00:18:31;;;;;;;10.05;4.05;;;;;;;;;;4969794;28;20046;-72
2022/03/07 00:20:57;;;;;;;4.55;3.55;;;;;;;;;;4967966;28;20703;-71
2022/03/07 00:23:23;;;;;;;6.78;3.35;;;;;;;;;;4967499;28;20137;-72
2022/03/07 00:25:49;;;;;;;14.50;4.75;;;;;;;;;;4970784;28;20680;-71
2022/03/07 00:28:16;;;;;;;14.77;5.63;;;;;;;;;;4968078;28;20158;-71
2022/03/07 00:30:42;;;;;;;3.35;2.28;;;;;;;;;;4969314;28;20042;-71
2022/03/07 00:33:08;;;;;;;4.03;2.55;;;;;;;;;;4967474;28;20042;-72
2022/03/07 00:35:34;;;;;;;16.00;4.80;;;;;;;;;;4967584;28;20126;-72
2022/03/07 00:38:00;;;;;;;8.10;5.05;;;;;;;;;;4952116;28;20515;-71
2022/03/07 00:40:26;;;;;;;14.18;5.28;;;;;;;;;;4968776;28;20037;-72
2022/03/07 00:42:52;;;;;;;4.15;3.55;;;-0.10;87.70;;;;;;4969292;28;20031;-71
2022/03/07 00:45:18;;;;;;;13.68;5.10;;;0.00;72.60;;;;;;4968613;28;20042;-72
2022/03/07 00:47:44;;;;;;;10.95;4.35;;;;;;;;;;4968994;28;20031;-71
2022/03/07 00:50:10;;;;;;;4.43;3.97;;;;;;;;;;4968810;28;20079;-71
2022/03/07 00:52:36;;;;;;;18.45;5.93;;;;;;;;;;4970849;28;20070;-72
2022/03/07 00:55:02;;;;;;;8.18;4.20;;;;;;;;;;4968573;28;20039;-72
2022/03/07 00:57:28;;;;;;;14.63;4.38;;;;;;;;;;4968655;28;20492;-72
2022/03/07 00:59:55;;;;;;;13.60;5.00;;;;;;;;;;4968258;28;20518;-72
2022/03/07 01:02:21;;;;;;;3.83;3.30;;;;;;;;;;4967257;28;20050;-72
2022/03/07 01:04:47;;;;;;;8.27;3.58;;;;;;;;;;4970689;28;20121;-70
2022/03/07 01:07:13;;;;;;;7.28;4.20;;;;;;;;;;4966413;28;20031;-71
2022/03/07 01:09:39;;;;;;;7.22;4.18;;;;;;;;;;4968500;28;20050;-71
2022/03/07 01:12:05;;;;;;;9.68;4.57;;;;;;;;;;4968634;28;20031;-72
2022/03/07 01:14:31;;;;;;;9.18;5.40;;;;;;;;;;4968514;28;20038;-71
2022/03/07 01:16:57;;;;;;;7.07;3.25;;;;;;;;;;4969100;28;20035;-72
2022/03/07 01:19:23;;;;;;;9.38;5.47;;;;;;;;;;4969631;28;20034;-71
2022/03/07 01:21:51;;;;;;;21.95;4.78;;;;;;;;;;4967379;28;20037;-72
2022/03/07 01:24:17;;;;;;;8.65;4.22;;;;;;;;;;4968179;28;20046;-72
2022/03/07 01:26:43;;;;;;;9.50;4.28;;;;;;;;;;4967345;28;20031;-71
2022/03/07 01:29:09;;;;;;;9.05;3.30;;;;;;;;;;4967696;28;20439;-72
2022/03/07 01:31:35;;;;;;;10.60;3.80;;;;;;;;;;4951723;28;20085;-72
2022/03/07 01:34:01;;;;;;;11.43;5.00;;;;;;;;;;4966467;28;20038;-72
2022/03/07 01:36:27;;;;;;;11.23;4.60;;;;;;;;;;4968100;28;20041;-71
2022/03/07 01:38:53;;;;;;;6.10;5.25;;;;;;;;;;4966437;28;20022;-72
2022/03/07 01:41:19;;;;;;;5.40;2.53;;;;;;;;;;4968631;28;20038;-71
2022/03/07 01:43:45;;;;;;;9.05;4.30;;;;;;;;;;4970449;28;20599;-71
2022/03/07 01:46:11;;;;;;;16.88;4.93;;;;;;;;;;4967402;28;20066;-72
2022/03/07 01:48:37;;;;;;;6.78;3.30;;;;;;;;;;4968212;28;20599;-71
2022/03/07 01:51:03;;;;;;;10.13;4.03;;;;;;;;;;4967702;28;20038;-73
2022/03/07 01:53:30;;;;;;;7.20;3.65;;;;;;;;;;4966444;28;20039;-71
2022/03/07 01:55:56;;;;;;;6.95;3.60;;;;;;;;;;4968648;28;20045;-72
2022/03/07 01:58:22;;;;;;;7.88;4.38;;;;;;;;;;4967686;28;20039;-72
2022/03/07 02:00:48;;;;;;;12.75;4.78;;;;;;;;;;4966389;28;20035;-71
2022/03/07 02:03:15;;;;;;;20.88;4.30;;;;;;;;;;4967716;28;20508;-72
2022/03/07 02:05:41;;;;;;;4.88;2.92;;;;;;;;;;4966643;28;20042;-73
2022/03/07 02:08:08;;;;;;;9.23;6.20;;;;;;;;;;4968436;28;20046;-72
2022/03/07 02:10:34;;;;;;;4.20;3.58;;;;;;;;;;4968600;28;20385;-71
2022/03/07 02:13:00;;;;;;;10.02;3.72;;;;;;;;;;4967653;28;20031;-72
2022/03/07 02:15:26;;;;;;;5.43;3.38;;;;;;;;;;4966055;28;20034;-72
2022/03/07 02:17:52;;;;;;;6.32;4.05;;;;;;;;;;4966235;28;20034;-72
2022/03/07 02:20:18;;;;;;;7.60;6.43;;;;;;;;;;4970081;28;20031;-72
2022/03/07 02:22:44;;;;;;;3.15;2.95;;;;;;;;;;4973500;28;20035;-72
2022/03/07 02:25:10;;;;;;;10.50;4.47;;;;;;;;;;4969737;28;20147;-72
2022/03/07 02:27:36;;;;;;;6.30;4.55;;;;;;;;;;4968514;28;20098;-72
2022/03/07 02:30:05;;;;;;;8.30;4.10;;;;;;;;;;4971468;28;20026;-72
2022/03/07 02:32:31;;;;;;;7.82;3.95;;;;;;;;;;4971377;28;20061;-72
2022/03/07 02:34:58;;;;;;;5.97;3.72;;;;;;;;;;4971718;28;20877;-72
2022/03/07 02:37:24;;;;;;;8.65;4.88;;;;;;;;;;4971076;28;20141;-72
2022/03/07 02:39:50;;;;;;;7.97;4.35;;;;;;;;;;4971356;28;20543;-73
2022/03/07 02:42:16;;;;;;;6.63;2.95;;;;;;;;;;4971685;28;20098;-72
2022/03/07 02:44:42;;;;;;;7.30;4.43;;;;;;;;;;4969617;28;20496;-72
2022/03/07 02:47:12;;;;;;;5.93;2.58;;;;;;;;;;4971108;28;20074;-71
2022/03/07 02:49:38;;;;;;;9.52;4.47;;;;;;;;;;4955604;28;20031;-72
2022/03/07 02:52:04;;;;;;;5.13;4.60;;;;;;;;;;4971079;28;20031;-71
2022/03/07 02:54:30;;;;;;;9.38;5.82;;;;;;;;;;4971047;28;20609;-72
2022/03/07 02:56:56;;;;;;;7.53;4.03;;;;;;;;;;4970926;28;20029;-71
2022/03/07 02:59:22;;;;;;;9.75;4.15;;;;;;;;;;4969917;28;20477;-72
2022/03/07 03:01:48;;;;;;;7.75;3.92;;;;;;;;;;4973403;28;20105;-72
2022/03/07 03:04:14;;;;;;;2.33;2.22;;;;;;;;;;4969182;28;20415;-72
2022/03/07 03:06:41;;;;;;;6.75;3.03;;;;;;;;;;4970868;28;20126;-71
2022/03/07 03:09:08;;;;;;;6.63;3.90;;;;;;;;;;4970761;28;20043;-72
2022/03/07 03:11:34;;;;;;;7.60;2.42;;;;;;;;;;4968026;28;20239;-72
2022/03/07 03:14:00;;;;;;;22.15;4.30;;;;;;;;;;4971513;28;20556;-72
2022/03/07 03:16:26;;;;;;;11.75;5.10;;;;;;;;;;4970530;28;20030;-72
2022/03/07 03:18:52;;;;;;;6.00;3.30;;;;;;;;;;4969102;28;20042;-72
2022/03/07 03:21:20;;;;;;;10.02;2.95;;;;;;;;;;4970552;28;20027;-72
2022/03/07 03:23:46;;;;;;;4.03;2.80;;;;;;;;;;4969091;28;20031;-72
2022/03/07 03:26:12;;;;;;;10.85;4.32;;;;;;;;;;4970356;28;20039;-72
2022/03/07 03:28:38;;;;;;;5.68;3.38;;;-1.30;88.60;;;;;;4954230;28;20034;-72
2022/03/07 03:31:04;;;;;;;12.77;4.32;;;;;;;;;;4969454;28;20070;-72
2022/03/07 03:33:30;;;;;;;4.40;3.55;;;;;;;;;;4967904;28;20484;-72
2022/03/07 03:35:56;;;;;;;7.70;4.80;;;;;;;;;;4970579;28;20027;-72
2022/03/07 03:38:22;;;;;;;16.40;4.63;;;;;;;;;;4969438;28;20484;-71
2022/03/07 03:40:48;;;;;;;4.65;3.00;;;;;;;;;;4972375;28;20023;-72
2022/03/07 03:43:14;;;;;;;12.10;4.38;;;;;;;;;;4971273;28;20165;-71
2022/03/07 03:45:40;;;;;;;20.17;4.72;;;;;;;;;;4968810;28;20534;-71
2022/03/07 03:48:06;;;;;;;11.95;4.55;;;;;;;;;;4964658;28;20031;-71
2022/03/07 03:50:32;;;;;;;12.02;2.65;;;-2.30;78.40;;;;;;4954077;28;20053;-71
2022/03/07 03:52:58;;;;;;;14.48;3.78;;;;;;;;;;4953264;28;20114;-72
2022/03/07 03:55:24;;;;;;;7.47;5.38;;;;;;;;;;4971173;28;20050;-72
2022/03/07 03:57:50;;;;;;;4.15;2.70;;;;;;;;;;4970054;28;20519;-71
2022/03/07 04:00:17;;;;;;;12.77;5.75;;;-1.60;78.90;;;;;;4969827;28;20097;-72
2022/03/07 04:02:43;;;;;;;;;;;;;;;;;;4968589;28;20542;-71
2022/03/07 04:05:13;;;;;;;3.35;3.05;;;-1.70;79.10;;;;;;4969766;28;19926;-72
2022/03/07 04:07:40;;;;;;;12.30;3.35;;;;;;;;;;4971622;28;20051;-72
2022/03/07 04:10:07;;;;;;;7.40;3.07;;;-1.60;79.90;;;;;;4969718;28;20042;-71
2022/03/07 04:12:33;;;;;;;11.50;4.93;;;;;;;;;;4969678;28;20022;-72
2022/03/07 04:14:59;;;;;;;5.72;3.17;;;;;;;;;;4968001;28;20877;-71
2022/03/07 04:17:25;;;;;;;4.47;3.00;;;;;;;;;;4965875;28;20082;-72
2022/03/07 04:19:51;;;;;;;7.22;5.65;;;;;;;;;;4971250;28;20101;-71
2022/03/07 04:22:17;;;;;;;10.18;4.80;;;;;;;;;;4970087;28;20772;-72
2022/03/07 04:24:43;;;;;;;15.70;4.82;;;;;;;;;;4969618;28;20126;-71
2022/03/07 04:27:09;;;;;;;7.72;5.05;;;;;;;;;;4967842;28;20023;-71
2022/03/07 04:29:35;;;;;;;7.07;3.38;;;;;;;;;;4968064;28;20060;-71
2022/03/07 04:32:01;;;;;;;6.15;3.38;;;;;;;;;;4969964;28;20155;-71
2022/03/07 04:34:27;;;;;;;7.03;3.58;;;;;;;;;;4968963;28;20023;-71
2022/03/07 04:36:53;;;;;;;5.05;3.28;;;;;;;;;;4967742;28;20058;-71
2022/03/07 04:39:19;;;;;;;6.03;3.25;;;;;;;;;;4968022;28;20527;-72
2022/03/07 04:41:45;;;;;;;8.48;3.70;;;;;;;;;;4967113;28;20035;-72
2022/03/07 04:44:12;;;;;;;4.15;3.13;;;-1.50;80.00;;;;;;4969045;28;20058;-72
2022/03/07 04:46:38;;;;;;;3.60;3.17;;;;;;;;;;4970963;28;20093;-71
2022/03/07 04:49:04;;;;;;;3.22;2.38;;;;;;;;;;4967404;28;20039;-72
2022/03/07 04:51:30;;;;;;;11.60;2.95;;;;;;;;;;4967778;28;20412;-72
2022/03/07 04:53:56;;;;;;;7.78;3.53;;;;;;;;;;4968920;28;20400;-72
2022/03/07 04:56:22;;;;;;;11.20;5.22;;;-1.70;96.90;;;;;;4967354;28;20085;-71
2022/03/07 04:58:48;;;;;;;7.15;3.75;;;;;;;;;;4970732;28;20027;-71
2022/03/07 05:01:15;;;;;;;8.30;4.70;;;;;;;;;;4967194;28;20393;-72
2022/03/07 05:03:41;;;;;;;8.73;4.20;;;;;;;;;;4967105;28;20039;-72
2022/03/07 05:06:08;;;;;;;5.32;2.78;;;;;;;;;;4967166;28;20046;-71
2022/03/07 05:08:34;;;;;;;;;;;-1.80;79.70;;;;;;4967622;28;20051;-71
2022/03/07 05:11:01;;;;;;;3.85;3.53;;;;;;;;;;4969542;28;19917;-71
2022/03/07 05:13:27;;;;;;;3.42;2.05;;;;;;;;;;4967967;28;20400;-72
2022/03/07 05:15:53;;;;;;;4.18;3.58;;;;;;;;;;4968723;28;20027;-71
2022/03/07 05:18:19;;;;;;;5.50;2.65;;;;;;;;;;4968330;28;20023;-72
2022/03/07 05:20:45;;;;;;;6.70;4.18;;;;;;;;;;4967580;28;20532;-72
2022/03/07 05:23:11;;;;;;;17.45;5.05;;;;;;;;;;4968248;28;20022;-71
2022/03/07 05:25:37;;;;;;;10.27;5.22;;;-2.00;97.70;;;;;;4969349;28;20181;-72
2022/03/07 05:28:03;;;;;;;9.82;4.35;;;;;;;;;;4968169;28;20763;-72
2022/03/07 05:30:29;;;;;;;6.22;4.28;;;;;;;;;;4968026;28;20038;-72
2022/03/07 05:32:55;;;;;;;5.47;3.88;;;-1.90;91.70;;;;;;4966716;28;20031;-71
2022/03/07 05:35:22;;;;;;;7.78;3.40;;;;;;;;;;4968511;28;20039;-71
2022/03/07 05:37:48;;;;;;;15.47;4.60;;;;;;;;;;4970611;28;20034;-72
2022/03/07 05:40:14;;;;;;;3.70;3.35;;;;;;;;;;4967984;28;20784;-71
2022/03/07 05:42:41;;;;;;;5.97;3.53;;;;;;;;;;4966289;28;20492;-71
2022/03/07 05:45:07;;;;;;;10.05;3.33;;;;;;;;;;4968118;28;20125;-71
2022/03/07 05:47:33;;;;;;;11.27;3.35;;;;;;;;;;4968225;28;20023;-72
2022/03/07 05:49:59;;;;;;;13.32;4.25;;;;;;;;;;4969064;28;20098;-72
2022/03/07 05:52:26;;;;;;;8.45;4.90;;;;;;;;;;4969266;28;20039;-72
2022/03/07 05:54:52;;;;;;;3.65;3.35;;;;;;;;;;4967234;28;20640;-71
2022/03/07 05:57:18;;;;;;;4.18;3.78;;;;;;;;;;4966264;28;20031;-71
2022/03/07 05:59:44;;;;;;;4.10;3.80;;;;;;;;;;4968058;28;20027;-72
2022/03/07 06:02:10;;;;;;;7.43;6.40;;;;;;;;;;4967892;28;20046;-71
2022/03/07 06:04:36;;;;;;;7.15;3.63;;;;;;;;;;4968081;28;20045;-72
2022/03/07 06:07:02;;;;;;;16.13;5.22;;;-2.20;97.50;;;;;;4954666;28;20027;-71
2022/03/07 06:09:28;;;;;;;9.02;2.95;;;;;;;;;;4957444;28;20102;-72
2022/03/07 06:11:54;;;;;;;8.23;3.55;;;;;;;;;;4954311;28;20130;-71
2022/03/07 06:14:20;;;;;;;8.40;3.22;;;;;;;;;;4952224;28;20039;-71
2022/03/07 06:16:46;;;;;;;5.32;4.13;;;;;;;;;;4954310;28;20041;-72
2022/03/07 06:19:12;;;;;;;13.60;4.40;;;;;;;;;;4961753;28;20031;-71
2022/03/07 06:21:38;;;;;;;4.88;3.53;;;;;;;;;;4960421;28;20031;-72
2022/03/07 06:24:04;;;;;;;10.18;5.15;;;;;;;;;;4958339;28;20603;-72
2022/03/07 06:26:30;;;;;;;5.70;4.55;;;;;;;;;;4962988;28;20043;-71
2022/03/07 06:28:56;;;;;;;6.95;5.03;;;;;;;;;;4965871;28;20027;-71
2022/03/07 06:31:22;;;;;;;12.32;3.60;;;;;;;;;;4967205;28;20027;-71
2022/03/07 06:33:48;;;;;;;9.02;5.72;;;;;;;;;;4952995;28;20544;-71
2022/03/07 06:36:14;;;;;;;9.70;4.55;;;;;;;;;;4953202;28;20069;-71
2022/03/07 06:38:40;;;;;;;14.45;5.75;;;;;;;;;;4961987;28;20118;-71
2022/03/07 06:41:07;;;;;;;7.47;3.67;;;;;;;;;;4940492;28;20035;-72
2022/03/07 06:43:33;;;;;;;3.47;2.88;;;;;;;;;;4950434;28;20575;-70
2022/03/07 06:45:59;;;;;;;5.83;1.93;;;;;;;;;;4957793;28;20074;-71
2022/03/07 06:48:25;;;;;;;12.80;7.70;;;;;;;;;;4962798;28;20118;-70
2022/03/07 06:50:51;;;;;;;5.13;3.83;;;;;;;;;;4965010;28;20042;-69
2022/03/07 06:53:17;;;;;;;7.45;3.45;;;;;;;;;;4961424;28;20035;-72
2022/03/07 06:55:43;;;;;;;3.42;2.58;;;;;;;;;;4942003;28;20057;-71
2022/03/07 06:58:09;;;;;;;17.98;5.10;;;;;;;;;;4946635;29;20113;-71
2022/03/07 07:00:35;;;;;;;15.07;5.13;;;;;;;;;;4962599;28;20030;-70
2022/03/07 07:03:02;;;;;;;9.20;3.80;;;;;;;;;;4966830;28;20041;-70
2022/03/07 07:05:28;;;;;;;11.43;5.97;;;;;;;;;;4968854;28;20061;-71
2022/03/07 07:07:54;;;;;;;32.40;6.97;;;;;;;;;;4954625;28;20121;-68
2022/03/07 07:10:20;;;;;;;13.40;4.85;;;;;;;;;;4950974;29;20287;-68
2022/03/07 07:12:48;;;;;;;11.80;5.80;;;;;;;;;;4966762;28;20031;-69
2022/03/07 07:15:14;;;;;;;26.42;11.88;;;;;;;;;;4970797;28;20035;-69
2022/03/07 07:17:40;;;;;;;13.65;6.75;;;;;;;;;;4970643;28;20022;-69
2022/03/07 07:20:07;;;;;;;28.83;11.73;;;;;;;;;;4967082;28;20031;-71
2022/03/07 07:22:33;;;;;;;20.83;7.63;;;;;;;;;;4954666;28;20184;-71
2022/03/07 07:24:59;;;;;;;18.08;7.10;;;;;;;;;;4954659;28;20072;-72
2022/03/07 07:27:25;;;;;;;23.40;9.68;;;;;;;;;;4963346;28;20038;-72
2022/03/07 07:29:51;;;;;;;15.70;8.93;;;;;;;;;;4970664;28;20023;-71
2022/03/07 07:32:17;;;;;;;21.85;10.70;;;;;;;;;;4969621;28;20488;-71
2022/03/07 07:34:43;;;;;;;21.55;8.63;;;;;;;;;;4971040;28;20053;-71
2022/03/07 07:37:09;;;;;;;11.65;7.43;;;;;;;;;;4970035;28;20045;-71
2022/03/07 07:39:35;;;;;;;20.77;8.13;;;;;;;;;;4969207;28;20026;-71
2022/03/07 07:42:01;;;;;;;16.60;7.95;;;;;;;;;;4970170;28;20037;-70
2022/03/07 07:44:27;;;;;;;18.83;10.40;;;;;;;;;;4970552;28;20034;-70
2022/03/07 07:46:54;;;;;;;21.10;8.88;;;;;;;;;;4970211;28;20039;-70
2022/03/07 07:49:21;;;;;;;27.47;12.47;;;;;;;;;;4955354;28;20054;-71
2022/03/07 07:51:48;;;;;;;24.10;10.38;;;;;;;;;;4966229;28;20039;-71
2022/03/07 07:54:14;;;;;;;18.52;10.75;;;;;;;;;;4967549;28;20037;-71
2022/03/07 07:56:40;;;;;;;26.48;12.65;;;;;;;;;;4967292;28;20031;-71
2022/03/07 07:59:06;;;;;;;25.85;12.25;;;;;;;;;;4952874;28;20038;-70
2022/03/07 08:01:32;;;;;;;18.65;10.15;;;;;;;;;;4970697;28;20400;-70
2022/03/07 08:03:57;;;;;;;17.70;9.25;;;15.80;43.50;;;;;;4956498;28;20031;-72
2022/03/07 08:06:24;;;;;;;22.27;10.90;;;;;;;;;;4963360;28;20053;-72
2022/03/07 08:08:50;;;;;;;19.83;9.00;;;17.20;44.10;;;;;;4965284;28;20138;-70
2022/03/07 08:11:16;;;;;;;25.90;12.35;;;;;;;;;;4951212;28;20105;-70
2022/03/07 08:13:42;;;;;;;17.65;10.95;;;;;;;;;;4968654;28;20038;-72
2022/03/07 08:16:08;;;;;;;21.13;10.50;;;;;;;;;;4963571;28;20026;-71
2022/03/07 08:18:34;;;;;;;25.05;9.13;;;;;;;;;;4968019;28;20034;-71
2022/03/07 08:21:00;;;;;;;16.27;9.63;;;;;;;;;;4967546;28;20504;-71
2022/03/07 08:23:26;;;;;;;21.50;9.60;;;;;;;;;;4967416;28;20042;-70
2022/03/07 08:25:53;;;;;;;16.60;10.17;;;;;;;;;;4935815;28;20572;-71
2022/03/07 08:28:19;;;;;;;20.87;9.57;;;;;;;;;;4956032;28;20126;-70
2022/03/07 08:30:45;;;;;;;17.08;8.10;;;;;;;;;;4952475;28;20130;-73
2022/03/07 08:33:11;;;;;;;19.05;8.63;;;;;;;;;;4954350;28;20027;-74
2022/03/07 08:35:37;;;;;;;19.85;9.93;;;;;;;;;;4954666;28;20038;-72
2022/03/07 08:38:03;;;;;;;17.10;8.13;;;;;;;;;;4951716;28;20023;-71
2022/03/07 08:40:29;;;;;;;17.45;7.75;;;;;;;;;;4956213;28;20502;-70
2022/03/07 08:42:56;;;;;;;19.08;8.90;;;;;;;;;;4962753;28;20069;-69
2022/03/07 08:45:24;;;;;;;16.05;9.20;;;16.90;38.80;;;;;;4961124;28;20039;-69
2022/03/07 08:47:50;;;;;;;20.17;8.40;;;;;;;;;;4957533;28;20110;-70
2022/03/07 08:50:18;;;;;;;16.17;8.70;;;;;;;;;;4969088;28;20173;-70
2022/03/07 08:52:44;;;;;;;15.68;8.98;;;;;;;;;;4969858;28;20031;-69
2022/03/07 08:55:10;;;;;;;16.13;8.40;;;;;;;;;;4968706;28;20038;-69
2022/03/07 08:57:36;;;;;;;19.80;8.77;;;;;;;;;;4969227;28;20503;-68
2022/03/07 09:00:03;;;;;;;19.75;9.18;;;;;;;;;;4968186;28;20024;-69
2022/03/07 09:02:29;;;;;;;16.40;7.63;;;;;;;;;;4967620;28;20030;-70
2022/03/07 09:04:56;;;;;;;15.45;7.00;;;;;;;;;;4969174;28;20560;-69
2022/03/07 09:07:22;;;;;;;15.18;7.60;;;;;;;;;;4953565;28;20035;-70
2022/03/07 09:09:48;;;;;;;17.38;8.40;;;;;;;;;;4951643;28;20856;-72
2022/03/07 09:12:14;;;;;;;14.45;7.82;;;;;;;;;;4960486;28;20031;-71
2022/03/07 09:14:40;;;;;;;13.77;7.63;;;;;;;;;;4967053;28;20090;-72
2022/03/07 09:17:06;;;;;;;15.02;7.45;;;;;;;;;;4968097;28;20113;-70
2022/03/07 09:19:32;;;;;;;16.85;7.78;;;;;;;;;;4969885;28;20102;-70
2022/03/07 09:21:58;;;;;;;15.40;7.45;;;;;;;;;;4955128;28;20070;-70
2022/03/07 09:24:24;;;;;;;13.70;8.43;;;;;;;;;;4943933;28;20106;-70
2022/03/07 09:26:50;;;;;;;14.10;7.35;;;;;;;;;;4968128;28;20031;-71
2022/03/07 09:29:16;;;;;;;17.25;7.10;;;;;;;;;;4950660;28;20566;-70
2022/03/07 09:31:42;;;;;;;13.95;6.93;;;;;;;;;;4951010;28;20035;-69
2022/03/07 09:34:10;;;;;;;14.57;7.78;;;;;;;;;;4966467;28;20043;-69
2022/03/07 09:36:39;;;;;;;15.00;7.40;;;;;;;;;;4968245;28;20064;-69
2022/03/07 09:39:05;;;;;;;17.67;9.27;;;;;;;;;;4968034;28;20099;-69
2022/03/07 09:41:32;;;;;;;12.20;6.97;;;;;;;;;;4966635;28;20480;-69
2022/03/07 09:43:58;;;;;;;15.82;7.70;;;;;;;;;;4949965;28;20031;-69
2022/03/07 09:46:24;;;;;;;22.73;7.80;;;;;;;;;;4952585;28;20389;-69
2022/03/07 09:48:50;;;;;;;22.67;9.38;;;;;;;;;;4964244;28;20031;-69
2022/03/07 09:51:16;;;;;;;15.07;6.90;;;;;;;;;;4960794;28;20038;-69
2022/03/07 09:53:42;;;;;;;14.48;7.53;;;;;;;;;;4955440;28;20518;-69
2022/03/07 09:56:08;;;;;;;14.98;6.85;;;;;;;;;;4967919;28;20030;-69
2022/03/07 09:58:34;;;;;;;12.55;6.60;;;;;;;;;;4952049;28;20023;-68
2022/03/07 10:01:19;;;;;;;15.18;8.20;;;;;;;;;;4952650;28;20052;-70
2022/03/07 10:03:46;;;;;;;15.60;6.82;;;;;;;;;;4952515;28;20030;-71
2022/03/07 10:06:13;;;;;;;12.45;6.80;;;;;;;;;;4940498;28;20513;-73
2022/03/07 10:08:39;;;;;;;14.52;6.05;;;;;;;;;;4967841;28;20042;-70
2022/03/07 10:11:09;;;;;;;17.20;7.72;;;;;;;;;;4967770;28;20039;-70
2022/03/07 10:13:35;;;;;;;20.90;8.25;;;;;;;;;;4955358;28;20499;-70
2022/03/07 10:16:03;;;;;;;16.48;7.20;;;;;;;;;;4965285;28;20117;-70
2022/03/07 10:18:29;;;;;;;11.35;7.18;;;;;;;;;;4967870;28;20054;-70
2022/03/07 10:20:56;;;;;;;15.05;7.32;;;;;;;;;;4963444;28;20081;-70
2022/03/07 10:23:27;;;;;;;12.88;6.90;;;;;;;;;;4952823;28;20059;-70
2022/03/07 10:26:04;;;;;;;22.38;7.50;;;19.80;26.90;;;;;;4968123;28;20058;-70
2022/03/07 10:28:30;;;;;;;;;;;;;;;;;;4969015;28;20241;-70
2022/03/07 10:30:56;;;;;;;18.30;7.20;;;;;;;;;;4967697;28;20371;-72
2022/03/07 10:33:26;;;;;;;17.20;8.32;;;;;;;;;;4963234;28;20027;-71
2022/03/07 10:35:54;;;;;;;18.13;7.38;;;;;;;;;;4966252;28;20601;-73
2022/03/07 10:38:22;;;;;;;19.23;7.25;;;;;;;;;;4965471;28;20031;-72
2022/03/07 10:40:52;;;;;;;17.50;6.88;;;;;;;;;;4954340;28;20063;-71
2022/03/07 10:43:19;;;;;;;15.23;7.55;;;18.60;28.30;;;;;;4956182;28;20065;-72
2022/03/07 10:45:51;;;;;;;17.02;7.40;;;;;;;;;;4967053;28;20082;-71
2022/03/07 10:48:17;;;;;;;16.50;9.23;;;19.10;28.10;;;;;;4971176;28;20031;-72
2022/03/07 10:50:52;;;;;;;18.33;8.45;;;19.30;27.50;;;;;;4968543;28;20062;-72
2022/03/07 10:53:18;;;;;;;22.30;7.47;;;;;;;;;;4956123;28;20436;-73
2022/03/07 10:55:54;;;;;;;17.35;8.60;;;;;;;;;;4972236;28;20488;-72
2022/03/07 10:58:21;;;;;;;19.00;8.37;;;;;;;;;;4956225;28;20058;-72
2022/03/07 11:00:57;;;;;;;15.53;7.17;;;;;;;;;;4956143;28;20035;-72
2022/03/07 11:03:23;;;;;;;22.77;10.27;;;;;;;;;;4955372;28;20034;-72
2022/03/07 11:05:50;;;;;;;20.33;7.57;;;;;;;;;;4958697;28;20527;-71
2022/03/07 11:08:17;;;;;;;15.83;7.27;;;;;;;;;;4962461;28;20698;-70
2022/03/07 11:10:47;;;;;;;15.85;8.73;;;;;;;;;;4972007;28;20269;-71
2022/03/07 11:13:16;;;;;;;16.58;6.63;;;20.70;26.90;;;;;;4955765;28;20107;-70
2022/03/07 11:15:43;;;;;;;13.55;8.18;;;;;;;;;;4966093;28;20387;-70
2022/03/07 11:18:12;;;;;;;15.85;8.55;;;;;;;;;;4970581;28;20047;-71
2022/03/07 11:20:40;;;;;;;16.27;7.20;;;;;;;;;;4969220;28;20474;-72
2022/03/07 11:23:06;;;;;;;14.85;7.38;;;;;;;;;;4964610;28;20062;-72
2022/03/07 11:25:32;;;;;;;17.77;7.18;;;;;;;;;;4956539;28;20046;-71
2022/03/07 11:27:58;;;;;;;17.13;8.52;;;18.30;36.20;;;;;;4967821;28;20082;-71
2022/03/07 11:30:26;;;;;;;17.15;8.10;;;;;;;;;;4963825;28;20114;-71
2022/03/07 11:32:52;;;;;;;16.40;8.18;;;;;;;;;;4969683;28;20027;-71
2022/03/07 11:35:19;;;;;;;22.93;9.03;;;;;;;;;;4969254;28;20025;-70
2022/03/07 11:37:45;;;;;;;19.40;9.05;;;;;;;;;;4966685;28;20018;-71
2022/03/07 11:40:20;;;;;;;17.88;9.20;;;;;;;;;;4965717;28;20033;-71
2022/03/07 11:42:46;;;;;;;18.50;8.65;;;;;;;;;;4958315;28;20046;-71
2022/03/07 11:45:18;;;;;;;18.65;9.18;;;;;;;;;;4961447;28;20034;-71
2022/03/07 11:47:46;;;;;;;21.23;9.70;;;17.20;30.90;;;;;;4970529;28;20038;-73
2022/03/07 11:50:12;;;;;;;17.90;8.77;;;;;;;;;;4968987;28;20034;-72
2022/03/07 11:52:38;;;;;;;20.23;8.20;;;;;;;;;;4968600;28;20023;-71
2022/03/07 11:55:10;;;;;;;15.88;8.55;;;;;;;;;;4968953;28;20118;-71
2022/03/07 11:57:36;;;;;;;17.98;8.10;;;;;;;;;;4959215;28;20500;-73
2022/03/07 12:00:09;;;;;;;23.70;9.52;;;;;;;;;;4959734;28;20045;-70
2022/03/07 12:02:43;;;;;;;17.85;8.50;;;17.00;31.20;;;;;;4968421;28;20030;-71
2022/03/07 12:05:20;;;;;;;13.68;7.85;;;;;;;;;;4952233;28;20560;-71
2022/03/07 12:07:46;;;;;;;24.35;8.23;;;;;;;;;;4956156;28;20097;-72
2022/03/07 12:10:12;;;;;;;14.98;7.00;;;;;;;;;;4955204;28;20062;-70
2022/03/07 12:12:39;;;;;;;18.05;8.35;;;;;;;;;;4963569;28;20244;-71
2022/03/07 12:15:09;;;;;;;13.63;7.27;;;;;;;;;;4962428;28;20043;-71
2022/03/07 12:17:35;;;;;;;15.32;8.30;;;;;;;;;;4937902;28;20562;-70
2022/03/07 12:20:01;;;;;;;19.40;8.02;;;;;;;;;;4953091;28;20517;-70
2022/03/07 12:22:28;;;;;;;15.60;8.25;;;;;;;;;;4970566;28;20574;-71
2022/03/07 12:24:57;;;;;;;17.60;8.93;;;;;;;;;;4969626;28;20741;-70
2022/03/07 12:27:23;;;;;;;14.73;8.00;;;;;;;;;;4969122;28;20035;-71
2022/03/07 12:29:51;;;;;;;18.02;6.47;;;;;;;;;;4969238;28;20057;-71
2022/03/07 12:32:17;;;;;;;;;;;;;;;;;;4969876;28;20045;-70
2022/03/07 12:34:43;;;;;;;15.55;7.88;;;;;;;;;;4955282;28;19906;-70
2022/03/07 12:37:12;;;;;;;15.45;7.97;;;;;;;;;;4953873;28;20754;-71
2022/03/07 12:39:51;;;;;;;19.25;8.32;;;;;;;;;;4963884;28;20037;-71
2022/03/07 12:42:21;;;;;;;25.52;8.23;;;;;;;;;;4969300;28;20026;-70
2022/03/07 12:44:47;;;;;;;17.50;8.48;;;;;;;;;;4967978;28;20800;-71
2022/03/07 12:47:14;;;;;;;20.10;7.57;;;;;;;;;;4968891;28;20042;-70
2022/03/07 12:49:40;;;;;;;14.65;7.45;;;;;;;;;;4969975;28;20416;-70
2022/03/07 12:52:08;;;;;;;17.10;8.20;;;;;;;;;;4962159;28;20404;-69
2022/03/07 12:54:36;;;;;;;22.17;8.65;;;;;;;;;;4969250;28;20137;-72
2022/03/07 12:57:02;;;;;;;15.13;7.40;;;15.10;34.30;;;;;;4967538;28;20035;-72
2022/03/07 12:59:31;;;;;;;19.88;8.07;;;;;;;;;;4968506;28;20135;-71
2022/03/07 13:01:58;;;;;;;21.00;9.02;;;;;;;;;;4968720;28;20037;-72
2022/03/07 13:04:25;;;;;;;18.40;7.75;;;;;;;;;;4968955;28;20077;-73
2022/03/07 13:06:52;;;;;;;15.70;7.50;;;;;;;;;;4957130;28;20043;-71
2022/03/07 13:09:20;;;;;;;14.85;7.03;;;;;;;;;;4953439;28;20053;-72
2022/03/07 13:11:52;;;;;;;16.20;7.13;;;14.50;36.30;;;;;;4956153;28;20030;-72
2022/03/07 13:14:22;;;;;;;18.80;8.35;;;;;;;;;;4968306;28;20023;-71
2022/03/07 13:16:49;;;;;;;14.13;7.50;;;;;;;;;;4950153;28;20046;-72
2022/03/07 13:19:15;;;;;;;15.20;7.22;;;;;;;;;;4967876;28;20118;-72
2022/03/07 13:21:45;;;;;;;26.30;8.50;;;;;;;;;;4958148;28;20066;-72
2022/03/07 13:24:15;;;;;;;13.93;7.80;;;;;;;;;;4959312;28;20124;-71
2022/03/07 13:26:42;;;;;;;14.38;7.30;;;;;;;;;;4967951;28;20117;-72
2022/03/07 13:29:09;;;;;;;18.42;8.30;;;;;;;;;;4968643;28;20026;-72
2022/03/07 13:31:41;;;;;;;17.13;6.82;;;;;;;;;;4956153;28;20074;-70
2022/03/07 13:34:07;;;;;;;23.35;8.27;;;;;;;;;;4965958;28;20034;-71
2022/03/07 13:36:44;;;;;;;21.95;8.77;;;;;;;;;;4959442;28;20518;-71
2022/03/07 13:39:23;;;;;;;22.00;7.72;;;;;;;;;;4958527;28;20130;-71
2022/03/07 13:41:54;;;;;;;20.08;8.98;;;12.90;38.40;;;;;;4967826;28;20451;-71
2022/03/07 13:44:21;;;;;;;17.23;8.77;;;;;;;;;;4967707;28;20124;-71
2022/03/07 13:46:55;;;;;;;17.58;7.35;;;;;;;;;;4969124;28;20617;-73
2022/03/07 13:49:23;;;;;;;16.98;6.55;;;;;;;;;;4968246;28;20435;-71
2022/03/07 13:51:49;;;;;;;17.52;8.25;;;;;;;;;;4955879;28;20114;-71
2022/03/07 13:54:16;;;;;;;17.90;9.05;;;;;;;;;;4955175;28;20042;-72
2022/03/07 13:56:41;;;;;;;22.42;7.68;;;;;;;;;;4942708;28;20027;-72
2022/03/07 13:59:14;;;;;;;19.33;8.05;;;;;;;;;;4950602;28;20052;-72
2022/03/07 14:01:40;;;;;;;20.48;8.05;;;;;;;;;;4955157;28;20051;-72
2022/03/07 14:04:10;;;;;;;19.05;8.48;;;;;;;;;;4965963;28;20073;-72
2022/03/07 14:06:36;;;;;;;15.68;8.77;;;;;;;;;;4967683;28;20070;-71
2022/03/07 14:09:02;;;;;;;15.93;7.45;;;;;;;;;;4967602;28;20082;-72
2022/03/07 14:11:29;;;;;;;19.60;9.80;;;;;;;;;;4966929;28;20468;-72
2022/03/07 14:13:56;;;;;;;15.98;8.07;;;;;;;;;;4969716;28;20042;-71
2022/03/07 14:16:33;;;;;;;19.77;8.75;;;;;;;;;;4967995;28;20026;-72
2022/03/07 14:18:59;;;;;;;17.63;7.05;;;;;;;;;;4971205;28;20039;-72
2022/03/07 14:21:27;;;;;;;16.27;6.97;;;;;;;;;;4963430;28;20028;-72